Time;durP1;ratioP1;P1;durP2;ratioP2;P2;SDS_P1;SDS_P2;PMS_P1;PMS_P2;Temp;Humidity;BMP_temperature;BMP_pressure;BME280_temperature;BME280_humidity;BME280_pressure;Samples;Min_cycle;Max_cycle;Signal;HPM_P1;HPM_P2
2022/03/23 00:00:46;;;;;;;15.25;8.32;;;19.80;53.70;;;;;;5021109;28;20639;-59
2022/03/23 00:03:13;;;;;;;13.90;8.02;;;19.90;53.70;;;;;;5019106;28;20026;-59
2022/03/23 00:05:41;;;;;;;13.07;8.05;;;19.80;53.70;;;;;;5018442;28;20025;-59
2022/03/23 00:08:06;;;;;;;14.52;7.75;;;19.80;53.80;;;;;;5016184;28;20040;-59
2022/03/23 00:10:32;;;;;;;16.08;8.63;;;19.80;53.70;;;;;;5012537;28;20022;-59
2022/03/23 00:12:58;;;;;;;13.95;7.90;;;19.80;53.70;;;;;;5022096;28;20036;-59
2022/03/23 00:15:24;;;;;;;12.88;7.72;;;19.80;53.80;;;;;;5014772;28;20417;-59
2022/03/23 00:17:50;;;;;;;13.45;8.20;;;19.80;53.80;;;;;;5017793;28;20037;-59
2022/03/23 00:20:16;;;;;;;16.08;8.30;;;19.80;53.70;;;;;;5019206;28;20056;-59
2022/03/23 00:22:41;;;;;;;15.43;8.20;;;19.80;53.70;;;;;;5015196;28;20021;-59
2022/03/23 00:25:08;;;;;;;14.00;7.72;;;19.70;53.70;;;;;;5014908;28;20104;-59
2022/03/23 00:27:35;;;;;;;14.73;7.63;;;19.70;53.70;;;;;;5018849;28;20036;-59
2022/03/23 00:30:01;;;;;;;17.17;7.95;;;19.80;53.80;;;;;;5020691;28;20104;-59
2022/03/23 00:32:26;;;;;;;12.07;7.10;;;19.80;53.80;;;;;;5014857;28;20072;-59
2022/03/23 00:34:52;;;;;;;13.77;7.78;;;19.70;53.80;;;;;;5011848;28;20414;-59
2022/03/23 00:37:18;;;;;;;13.48;7.88;;;19.70;53.80;;;;;;5011911;28;20042;-59
2022/03/23 00:39:43;;;;;;;14.43;7.82;;;19.70;53.70;;;;;;5017041;28;20033;-59
2022/03/23 00:42:09;;;;;;;15.38;8.48;;;19.70;53.80;;;;;;5049225;28;20442;-59
2022/03/23 00:44:35;;;;;;;15.57;7.28;;;19.70;53.80;;;;;;5019504;28;20025;-59
2022/03/23 00:47:01;;;;;;;13.68;7.40;;;19.70;53.80;;;;;;5014713;28;20034;-59
2022/03/23 00:49:26;;;;;;;12.55;7.25;;;19.70;53.80;;;;;;5015499;28;20030;-59
2022/03/23 00:51:53;;;;;;;13.48;7.35;;;19.70;53.80;;;;;;5014229;28;20030;-59
2022/03/23 00:54:22;;;;;;;12.15;7.13;;;19.60;53.80;;;;;;5017644;28;20445;-59
2022/03/23 00:56:50;;;;;;;12.05;7.50;;;19.70;53.90;;;;;;5014680;28;20044;-59
2022/03/23 00:59:16;;;;;;;12.38;6.78;;;19.60;53.80;;;;;;5014397;28;20034;-59
2022/03/23 01:01:42;;;;;;;13.23;7.05;;;19.60;53.80;;;;;;5018492;28;20029;-59
2022/03/23 01:04:08;;;;;;;11.30;6.80;;;19.60;53.80;;;;;;5015778;28;20030;-59
2022/03/23 01:06:34;;;;;;;12.02;7.13;;;19.60;53.80;;;;;;5015181;28;20064;-59
2022/03/23 01:08:59;;;;;;;13.88;7.07;;;19.60;53.70;;;;;;5021270;28;20028;-59
2022/03/23 01:11:25;;;;;;;13.45;7.10;;;19.60;54.00;;;;;;5018283;28;21079;-59
2022/03/23 01:13:51;;;;;;;12.20;7.13;;;19.60;53.90;;;;;;5012803;28;20384;-59
2022/03/23 01:16:17;;;;;;;13.50;7.13;;;19.60;53.80;;;;;;5015879;28;20041;-59
2022/03/23 01:18:43;;;;;;;11.88;7.30;;;19.60;53.80;;;;;;5049917;28;20029;-59
2022/03/23 01:21:08;;;;;;;12.38;6.85;;;19.60;53.90;;;;;;5022257;28;20029;-59
2022/03/23 01:23:34;;;;;;;13.05;7.22;;;19.60;53.90;;;;;;5023950;28;20025;-59
2022/03/23 01:25:59;;;;;;;12.68;7.32;;;19.60;53.80;;;;;;5020034;28;20128;-59
2022/03/23 01:28:25;;;;;;;13.80;7.10;;;19.50;53.90;;;;;;5018284;28;20470;-59
2022/03/23 01:30:51;;;;;;;10.57;6.55;;;19.50;53.80;;;;;;5019888;28;20502;-59
2022/03/23 01:33:17;;;;;;;11.23;6.53;;;19.60;53.90;;;;;;5021989;28;20491;-59
2022/03/23 01:35:42;;;;;;;12.32;6.78;;;19.50;54.00;;;;;;5020956;28;20029;-59
2022/03/23 01:38:08;;;;;;;11.45;7.20;;;19.50;53.90;;;;;;5020204;28;20026;-59
2022/03/23 01:40:33;;;;;;;12.13;6.88;;;19.50;54.00;;;;;;5019030;28;20037;-59
2022/03/23 01:42:59;;;;;;;12.95;6.13;;;19.50;53.90;;;;;;5017977;28;20132;-59
2022/03/23 01:45:25;;;;;;;11.65;6.70;;;19.50;54.10;;;;;;5018289;28;20503;-59
2022/03/23 01:47:52;;;;;;;12.23;6.78;;;19.50;54.10;;;;;;5018259;28;20046;-59
2022/03/23 01:50:17;;;;;;;10.80;6.20;;;19.50;54.10;;;;;;5017378;28;20044;-59
2022/03/23 01:52:43;;;;;;;12.02;6.70;;;19.50;54.20;;;;;;5018730;28;20144;-59
2022/03/23 01:55:13;;;;;;;12.48;6.78;;;19.40;54.30;;;;;;5021783;28;20594;-59
2022/03/23 01:57:39;;;;;;;10.98;6.53;;;19.50;54.10;;;;;;5019997;28;20080;-59
2022/03/23 02:00:06;;;;;;;12.60;6.32;;;19.40;54.10;;;;;;5017693;28;20026;-59
2022/03/23 02:02:31;;;;;;;10.65;6.30;;;19.40;54.20;;;;;;5016341;28;20468;-59
2022/03/23 02:04:57;;;;;;;10.48;6.22;;;19.40;54.50;;;;;;5016082;28;20022;-59
2022/03/23 02:07:24;;;;;;;10.90;6.20;;;19.40;54.30;;;;;;5016469;28;20045;-59
2022/03/23 02:09:50;;;;;;;11.48;6.28;;;19.40;54.20;;;;;;5020414;28;20469;-59
2022/03/23 02:12:16;;;;;;;10.90;6.25;;;19.40;54.20;;;;;;5016769;28;20028;-59
2022/03/23 02:14:41;;;;;;;11.15;6.10;;;19.40;54.30;;;;;;5018364;28;20025;-59
2022/03/23 02:17:07;;;;;;;10.00;5.68;;;19.40;54.10;;;;;;5020700;28;20042;-59
2022/03/23 02:19:33;;;;;;;10.23;6.47;;;19.40;54.30;;;;;;5017230;28;20413;-59
2022/03/23 02:21:59;;;;;;;10.48;6.20;;;19.40;54.10;;;;;;5019187;28;20092;-59
2022/03/23 02:24:29;;;;;;;11.65;6.90;;;19.40;54.50;;;;;;5016841;28;20033;-59
2022/03/23 02:26:54;;;;;;;10.57;5.93;;;19.40;54.30;;;;;;5019088;28;20038;-59
2022/03/23 02:29:23;;;;;;;10.27;6.22;;;19.40;54.20;;;;;;5023233;28;20026;-59
2022/03/23 02:31:49;;;;;;;9.73;5.72;;;19.30;54.30;;;;;;5017064;28;20116;-59
2022/03/23 02:34:14;;;;;;;10.02;6.05;;;19.30;54.40;;;;;;5015374;28;20126;-59
2022/03/23 02:36:40;;;;;;;9.52;5.97;;;19.30;54.10;;;;;;5025576;28;20045;-59
2022/03/23 02:39:05;;;;;;;9.35;6.13;;;19.30;54.20;;;;;;5016931;28;20411;-59
2022/03/23 02:41:31;;;;;;;9.95;6.03;;;19.30;54.40;;;;;;5017387;28;20089;-59
2022/03/23 02:43:57;;;;;;;11.10;6.20;;;19.30;54.30;;;;;;5012265;28;20671;-59
2022/03/23 02:46:23;;;;;;;9.20;5.93;;;19.30;54.20;;;;;;5015936;28;20491;-59
2022/03/23 02:48:51;;;;;;;10.82;5.80;;;19.30;54.40;;;;;;5020684;28;20029;-59
2022/03/23 02:51:17;;;;;;;9.70;5.43;;;19.30;54.40;;;;;;5020427;28;20034;-59
2022/03/23 03:02:37;;;;;;;10.38;5.75;;;19.30;54.40;;;;;;5014983;28;20100;-59
2022/03/23 03:05:07;;;;;;;9.02;5.38;;;19.20;55.50;;;;;;5014945;28;20033;-59
2022/03/23 03:10:31;;;;;;;9.45;5.50;;;19.20;54.40;;;;;;5015172;28;20518;-59
2022/03/23 03:12:57;;;;;;;8.90;5.63;;;19.20;54.50;;;;;;5026815;28;20033;-59
2022/03/23 03:15:23;;;;;;;9.68;5.70;;;19.20;54.20;;;;;;5021173;28;20065;-59
2022/03/23 03:17:48;;;;;;;9.70;5.72;;;19.20;54.50;;;;;;5024635;28;20065;-59
2022/03/23 03:20:15;;;;;;;10.20;5.35;;;19.20;54.60;;;;;;5024345;28;20045;-59
2022/03/23 03:22:41;;;;;;;10.52;5.75;;;19.10;54.30;;;;;;5040596;28;20072;-59
2022/03/23 03:25:07;;;;;;;10.32;5.55;;;19.10;54.30;;;;;;5025442;28;20022;-59
2022/03/23 03:27:35;;;;;;;8.93;5.43;;;19.10;54.40;;;;;;5024532;28;20047;-59
2022/03/23 03:30:02;;;;;;;8.73;5.30;;;19.20;54.50;;;;;;5028620;28;20628;-59
2022/03/23 03:32:28;;;;;;;8.52;5.25;;;19.10;54.40;;;;;;5027493;28;20037;-59
2022/03/23 03:34:54;;;;;;;9.80;5.38;;;19.10;54.20;;;;;;5019539;28;20037;-59
2022/03/23 03:37:19;;;;;;;9.85;5.68;;;19.10;54.30;;;;;;5023217;28;20041;-59
2022/03/23 03:39:45;;;;;;;9.15;5.13;;;19.10;54.30;;;;;;5027688;28;20033;-59
2022/03/23 03:42:13;;;;;;;9.55;5.57;;;19.10;54.40;;;;;;5025177;28;20095;-59
2022/03/23 03:44:38;;;;;;;9.05;5.53;;;19.10;54.20;;;;;;5024781;28;20100;-59
2022/03/23 03:47:05;;;;;;;10.35;5.18;;;19.10;54.20;;;;;;5012879;28;20132;-59
2022/03/23 03:49:31;;;;;;;9.23;5.40;;;19.10;54.20;;;;;;5019370;28;20022;-59
2022/03/23 03:51:57;;;;;;;9.35;5.25;;;19.10;54.10;;;;;;5015422;28;20064;-59
2022/03/23 03:54:23;;;;;;;9.02;5.22;;;19.10;54.30;;;;;;5017106;28;20053;-59
2022/03/23 03:56:48;;;;;;;9.25;5.45;;;19.10;54.30;;;;;;5020694;28;20103;-59
2022/03/23 03:59:14;;;;;;;8.55;5.38;;;19.00;54.30;;;;;;5013269;28;20100;-59
2022/03/23 04:01:40;;;;;;;8.98;5.40;;;19.00;54.60;;;;;;5018114;28;20442;-59
2022/03/23 04:04:05;;;;;;;8.40;5.28;;;19.00;54.40;;;;;;5017838;28;20106;-59
2022/03/23 04:06:31;;;;;;;7.70;4.63;;;19.00;54.00;;;;;;5015351;28;20036;-59
2022/03/23 04:08:56;;;;;;;8.45;4.90;;;19.00;54.30;;;;;;5019886;28;20108;-59
2022/03/23 04:11:22;;;;;;;9.05;5.10;;;19.00;54.30;;;;;;5023801;28;20048;-59
2022/03/23 04:13:48;;;;;;;9.73;5.50;;;19.00;54.20;;;;;;5011042;28;20025;-59
2022/03/23 04:16:13;;;;;;;7.70;5.00;;;19.00;54.10;;;;;;5020727;28;20029;-59
2022/03/23 04:18:39;;;;;;;9.32;5.55;;;19.00;54.20;;;;;;5024432;28;20025;-59
2022/03/23 04:21:05;;;;;;;8.45;5.18;;;19.00;54.20;;;;;;5020018;28;20053;-59
2022/03/23 04:23:32;;;;;;;8.55;5.32;;;18.90;53.90;;;;;;5018792;28;20068;-59
2022/03/23 04:25:57;;;;;;;8.75;5.00;;;19.00;54.00;;;;;;5014725;28;20478;-59
2022/03/23 04:28:23;;;;;;;9.13;5.30;;;18.90;53.70;;;;;;5016908;28;20036;-60
2022/03/23 04:30:49;;;;;;;9.35;5.00;;;18.90;53.70;;;;;;5023553;28;20045;-59
2022/03/23 04:33:15;;;;;;;7.80;4.70;;;18.90;54.10;;;;;;5016985;28;20059;-59
2022/03/23 04:35:41;;;;;;;10.15;5.57;;;18.90;54.00;;;;;;5018288;28;20128;-59
2022/03/23 04:38:06;;;;;;;11.32;5.30;;;18.90;54.20;;;;;;5014626;28;20725;-59
2022/03/23 04:40:32;;;;;;;8.40;5.05;;;18.90;54.90;;;;;;5012314;28;20030;-59
2022/03/23 04:42:58;;;;;;;9.20;5.50;;;18.90;54.30;;;;;;5013543;28;20070;-59
2022/03/23 04:45:24;;;;;;;9.95;5.20;;;18.90;54.00;;;;;;5016790;28;20034;-59
2022/03/23 04:47:50;;;;;;;9.68;5.30;;;18.90;53.90;;;;;;5017596;28;20022;-59
2022/03/23 04:50:16;;;;;;;8.93;5.10;;;18.90;53.80;;;;;;5012500;28;20022;-59
2022/03/23 04:52:44;;;;;;;10.50;5.40;;;18.90;54.00;;;;;;5012466;28;20033;-59
2022/03/23 04:55:10;;;;;;;9.80;4.90;;;18.90;53.90;;;;;;5015194;28;20720;-59
2022/03/23 04:57:36;;;;;;;9.52;4.82;;;18.90;54.10;;;;;;5017158;28;20044;-59
2022/03/23 05:00:02;;;;;;;11.65;4.72;;;18.90;54.20;;;;;;5020067;28;20022;-59
2022/03/23 05:02:28;;;;;;;11.15;4.90;;;18.80;54.20;;;;;;5024019;28;20029;-59
2022/03/23 05:04:54;;;;;;;9.52;4.85;;;18.80;55.20;;;;;;5017290;28;20104;-59
2022/03/23 05:07:19;;;;;;;8.57;5.10;;;18.80;54.10;;;;;;5015473;28;20421;-59
2022/03/23 05:09:45;;;;;;;10.18;4.80;;;18.80;54.10;;;;;;5020295;28;20486;-59
2022/03/23 05:12:10;;;;;;;10.57;5.13;;;18.80;54.00;;;;;;5023150;28;20026;-59
2022/03/23 05:14:36;;;;;;;8.65;4.88;;;18.80;54.00;;;;;;5016586;28;20040;-59
2022/03/23 05:17:03;;;;;;;8.13;4.70;;;18.80;54.00;;;;;;5021986;28;20135;-59
2022/03/23 05:19:28;;;;;;;8.63;5.22;;;18.80;54.00;;;;;;5017203;28;20919;-59
2022/03/23 05:21:54;;;;;;;10.05;5.05;;;18.80;54.00;;;;;;5019460;28;20037;-59
2022/03/23 05:24:20;;;;;;;8.57;4.90;;;18.80;54.10;;;;;;5021642;28;20419;-59
2022/03/23 05:26:45;;;;;;;9.82;4.78;;;18.80;54.00;;;;;;5025697;28;20509;-59
2022/03/23 05:29:11;;;;;;;9.40;4.90;;;18.80;54.00;;;;;;5017864;28;20486;-59
2022/03/23 05:31:38;;;;;;;9.45;5.32;;;18.80;54.00;;;;;;5023132;28;20029;-59
2022/03/23 05:34:04;;;;;;;8.52;4.88;;;18.80;53.90;;;;;;5017882;28;20022;-59
2022/03/23 05:36:30;;;;;;;8.50;4.78;;;18.70;53.90;;;;;;5022328;28;20046;-59
2022/03/23 05:38:57;;;;;;;7.93;4.60;;;18.80;53.90;;;;;;5052425;28;20044;-59
2022/03/23 05:41:23;;;;;;;9.02;4.80;;;18.70;53.90;;;;;;5017888;28;20041;-59
2022/03/23 05:43:49;;;;;;;10.52;5.05;;;18.70;54.00;;;;;;5016598;28;20120;-59
2022/03/23 05:46:15;;;;;;;10.10;5.05;;;18.70;54.20;;;;;;5013424;28;20112;-59
2022/03/23 05:48:40;;;;;;;9.40;5.00;;;18.70;54.30;;;;;;5019339;28;20119;-59
2022/03/23 05:51:06;;;;;;;9.13;4.78;;;18.70;54.30;;;;;;5019962;28;20018;-59
2022/03/23 05:53:32;;;;;;;8.25;4.93;;;18.70;54.30;;;;;;5018399;28;20038;-59
2022/03/23 05:55:58;;;;;;;11.27;4.78;;;18.70;54.50;;;;;;5016268;28;20025;-59
2022/03/23 05:58:24;;;;;;;7.85;4.63;;;18.70;54.60;;;;;;5017328;28;20107;-59
2022/03/23 06:00:49;;;;;;;13.05;5.15;;;18.70;54.60;;;;;;5025197;28;20426;-59
2022/03/23 06:03:15;;;;;;;8.77;4.65;;;18.70;55.00;;;;;;5022390;28;20456;-59
2022/03/23 06:05:41;;;;;;;8.95;5.03;;;18.70;55.20;;;;;;5025742;28;20430;-59
2022/03/23 06:08:07;;;;;;;9.18;5.00;;;18.70;55.50;;;;;;5020158;28;20616;-59
2022/03/23 06:10:33;;;;;;;10.73;5.00;;;18.70;55.30;;;;;;5013896;28;20040;-60
2022/03/23 06:12:59;;;;;;;8.73;4.70;;;18.70;54.90;;;;;;5017723;28;20029;-59
2022/03/23 06:15:24;;;;;;;12.63;5.00;;;18.60;55.80;;;;;;5024377;28;20021;-59
2022/03/23 06:17:50;;;;;;;10.23;4.78;;;18.60;54.50;;;;;;5016734;28;20041;-59
2022/03/23 06:20:16;;;;;;;11.82;5.15;;;18.60;54.70;;;;;;5017627;28;20022;-58
2022/03/23 06:22:41;;;;;;;9.50;5.47;;;18.60;55.80;;;;;;5020145;28;20120;-59
2022/03/23 06:25:08;;;;;;;10.38;5.07;;;18.70;56.30;;;;;;5016488;28;20022;-59
2022/03/23 06:27:34;;;;;;;9.40;5.13;;;18.60;56.20;;;;;;5025574;28;20029;-59
2022/03/23 06:30:00;;;;;;;11.50;4.85;;;18.70;56.30;;;;;;5021817;28;20033;-58
2022/03/23 06:32:26;;;;;;;8.98;4.90;;;18.70;56.10;;;;;;5019102;28;20487;-59
2022/03/23 06:34:52;;;;;;;9.38;5.07;;;18.60;55.90;;;;;;5018961;28;20156;-59
2022/03/23 06:37:17;;;;;;;10.68;4.75;;;18.60;55.90;;;;;;5021455;28;20045;-59
2022/03/23 06:39:43;;;;;;;8.27;4.95;;;18.70;55.90;;;;;;5016919;28;20394;-59
2022/03/23 06:42:09;;;;;;;9.98;4.90;;;18.60;55.80;;;;;;5023474;28;20422;-59
2022/03/23 06:44:34;;;;;;;9.82;5.07;;;18.60;55.90;;;;;;5018345;28;20571;-59
2022/03/23 06:47:00;;;;;;;8.23;4.95;;;18.60;55.70;;;;;;5016369;28;20285;-59
2022/03/23 06:49:26;;;;;;;9.30;4.78;;;18.60;55.70;;;;;;5017749;28;27848;-59
2022/03/23 06:51:51;;;;;;;9.05;4.82;;;18.60;55.70;;;;;;5020764;28;20032;-59
2022/03/23 06:54:18;;;;;;;9.27;4.63;;;18.60;55.70;;;;;;5017194;28;20467;-59
2022/03/23 06:56:43;;;;;;;8.75;4.57;;;18.60;55.70;;;;;;5019914;28;20418;-59
2022/03/23 06:59:09;;;;;;;12.57;5.03;;;18.60;55.60;;;;;;5025269;28;20022;-59
2022/03/23 07:01:35;;;;;;;8.20;4.53;;;18.60;55.60;;;;;;5027641;28;20044;-58
2022/03/23 07:04:00;;;;;;;9.60;4.75;;;18.60;55.60;;;;;;5019192;28;20450;-58
2022/03/23 07:06:26;;;;;;;9.15;4.65;;;18.60;55.40;;;;;;5021569;28;20103;-58
2022/03/23 07:11:36;;;;;;;9.07;4.38;;;18.60;55.20;;;;;;5026341;28;20449;-58
2022/03/23 07:14:01;;;;;;;8.68;4.95;;;18.60;55.20;;;;;;5015153;28;20029;-58
2022/03/23 07:16:28;;;;;;;8.77;4.65;;;18.50;55.20;;;;;;5013120;28;20048;-58
2022/03/23 07:18:53;;;;;;;8.43;4.75;;;18.60;55.20;;;;;;5015333;28;20089;-58
2022/03/23 07:21:19;;;;;;;7.60;4.40;;;18.50;55.00;;;;;;5017710;28;20029;-58
2022/03/23 07:23:45;;;;;;;7.43;4.43;;;18.50;55.00;;;;;;5021303;28;20035;-58
2022/03/23 07:26:10;;;;;;;10.10;4.68;;;18.50;55.00;;;;;;5022392;28;20029;-58
2022/03/23 07:28:36;;;;;;;9.65;4.70;;;18.50;55.00;;;;;;5019663;28;20080;-58
2022/03/23 07:31:01;;;;;;;9.40;4.25;;;18.50;55.00;;;;;;5018731;28;20025;-58
2022/03/23 07:33:28;;;;;;;9.85;4.55;;;18.50;55.00;;;;;;5019644;28;20029;-58
2022/03/23 07:35:54;;;;;;;8.70;4.25;;;18.50;54.90;;;;;;5024017;28;20212;-58
2022/03/23 07:38:20;;;;;;;8.65;4.88;;;18.50;55.00;;;;;;5017464;28;20441;-58
2022/03/23 07:40:45;;;;;;;7.82;4.50;;;18.50;54.90;;;;;;5017337;28;20079;-58
2022/03/23 07:43:11;;;;;;;8.27;4.50;;;18.50;54.90;;;;;;5016727;28;20056;-58
2022/03/23 07:45:37;;;;;;;10.57;4.78;;;18.50;54.90;;;;;;5019077;28;20060;-58
2022/03/23 07:48:03;;;;;;;8.23;4.40;;;18.50;54.90;;;;;;5016740;28;20049;-58
2022/03/23 07:50:29;;;;;;;7.40;4.40;;;18.50;54.90;;;;;;5017448;28;20025;-57
2022/03/23 07:52:55;;;;;;;9.60;4.45;;;18.50;54.90;;;;;;5020588;28;20037;-59
2022/03/23 07:55:20;;;;;;;7.60;4.03;;;18.50;54.90;;;;;;5019397;28;20033;-58
2022/03/23 07:57:46;;;;;;;7.53;4.28;;;18.50;54.90;;;;;;5020173;28;20030;-58
2022/03/23 08:00:12;;;;;;;9.38;4.68;;;18.50;54.90;;;;;;5018022;28;20095;-58
2022/03/23 08:02:38;;;;;;;7.15;4.10;;;18.50;55.00;;;;;;5016727;28;20021;-58
2022/03/23 08:05:05;;;;;;;9.60;4.60;;;18.50;54.90;;;;;;5021275;28;20079;-58
2022/03/23 08:07:31;;;;;;;7.85;4.18;;;18.50;54.90;;;;;;5023019;28;20025;-58
2022/03/23 08:09:56;;;;;;;8.48;4.65;;;18.50;54.90;;;;;;5020647;28;20037;-58
2022/03/23 08:12:22;;;;;;;8.90;4.75;;;18.50;54.90;;;;;;5015052;28;20041;-58
2022/03/23 08:14:48;;;;;;;8.60;4.57;;;18.50;54.90;;;;;;5019125;28;20057;-58
2022/03/23 08:17:13;;;;;;;10.00;4.70;;;18.60;54.90;;;;;;5020171;28;20088;-58
2022/03/23 08:19:39;;;;;;;8.25;4.40;;;18.50;54.80;;;;;;5014290;28;20025;-58
2022/03/23 08:22:05;;;;;;;8.75;4.80;;;18.50;54.80;;;;;;5017944;28;20113;-58
2022/03/23 08:24:31;;;;;;;9.10;4.15;;;18.50;54.80;;;;;;5026467;28;20040;-58
2022/03/23 08:26:56;;;;;;;7.00;4.20;;;18.50;54.90;;;;;;5020083;28;20026;-58
2022/03/23 08:29:22;;;;;;;7.90;4.20;;;18.50;54.90;;;;;;5017312;28;20549;-58
2022/03/23 08:31:48;;;;;;;8.63;4.32;;;18.50;54.70;;;;;;5015385;28;20036;-58
2022/03/23 08:34:14;;;;;;;9.43;4.55;;;18.60;54.80;;;;;;5018756;28;20026;-58
2022/03/23 08:36:39;;;;;;;7.88;4.50;;;18.60;54.80;;;;;;5017273;28;20042;-58
2022/03/23 08:39:05;;;;;;;8.15;4.60;;;18.60;54.80;;;;;;5019568;28;20119;-58
2022/03/23 08:41:31;;;;;;;8.25;4.20;;;18.60;54.80;;;;;;5019206;28;20025;-58
2022/03/23 08:43:57;;;;;;;7.68;4.03;;;18.60;54.80;;;;;;5016499;28;20076;-58
2022/03/23 08:46:22;;;;;;;6.63;4.22;;;18.60;54.70;;;;;;5017719;28;20033;-58
2022/03/23 08:48:51;;;;;;;6.78;4.03;;;18.60;54.60;;;;;;5019624;28;20112;-58
2022/03/23 08:51:17;;;;;;;7.05;4.10;;;18.70;54.70;;;;;;5017167;28;20057;-59
2022/03/23 08:53:43;;;;;;;8.20;4.38;;;18.60;54.60;;;;;;5015532;28;20501;-58
2022/03/23 08:56:10;;;;;;;7.30;4.00;;;18.70;54.70;;;;;;5015997;28;20112;-58
2022/03/23 08:58:37;;;;;;;8.25;4.45;;;18.70;54.70;;;;;;5012300;28;20033;-58
2022/03/23 09:01:03;;;;;;;7.20;4.20;;;18.70;54.70;;;;;;5010364;28;20075;-58
2022/03/23 09:03:29;;;;;;;7.22;3.80;;;18.70;54.70;;;;;;5019905;28;20562;-58
2022/03/23 09:05:57;;;;;;;7.22;4.20;;;18.70;54.60;;;;;;5014213;28;20026;-58
2022/03/23 09:08:23;;;;;;;7.45;4.20;;;18.70;54.70;;;;;;5021153;28;20029;-58
2022/03/23 09:10:49;;;;;;;7.00;4.00;;;18.70;54.70;;;;;;5015869;28;20111;-58
2022/03/23 09:13:14;;;;;;;6.55;3.80;;;18.70;54.60;;;;;;5015764;28;20830;-58
2022/03/23 09:15:40;;;;;;;6.57;4.15;;;18.70;54.60;;;;;;5020139;28;20034;-58
2022/03/23 09:18:07;;;;;;;7.25;4.07;;;18.80;54.70;;;;;;5021380;28;20038;-58
2022/03/23 09:20:33;;;;;;;8.23;4.13;;;18.80;54.70;;;;;;5014265;28;20026;-58
2022/03/23 09:22:59;;;;;;;8.13;4.20;;;18.80;54.70;;;;;;5022042;28;20494;-58
2022/03/23 09:25:25;;;;;;;6.95;3.88;;;18.80;54.60;;;;;;5023876;28;20040;-57
2022/03/23 09:27:51;;;;;;;7.10;4.00;;;18.80;54.60;;;;;;5047749;28;20025;-58
2022/03/23 09:30:17;;;;;;;8.02;4.20;;;18.80;54.60;;;;;;5016630;28;20405;-58
2022/03/23 09:32:43;;;;;;;7.65;4.20;;;18.80;54.50;;;;;;5018161;28;20025;-58
2022/03/23 09:35:09;;;;;;;7.88;4.05;;;18.80;54.50;;;;;;5015937;28;20449;-58
2022/03/23 09:37:50;;;;;;;7.82;4.40;;;18.90;54.60;;;;;;5022179;28;20088;-58
2022/03/23 09:40:24;;;;;;;7.45;4.07;;;18.90;54.50;;;;;;5020026;28;20041;-58
2022/03/23 09:42:50;;;;;;;7.43;4.15;;;18.90;54.50;;;;;;5046945;28;21197;-58
2022/03/23 09:45:59;;;;;;;7.85;4.18;;;18.90;54.50;;;;;;5018772;28;20504;-58
2022/03/23 09:48:11;;;;;;;6.38;4.05;;;18.90;54.50;;;;;;5018992;28;20188;-58
2022/03/23 09:50:38;;;;;;;8.50;3.85;;;18.90;54.40;;;;;;5020633;28;20029;-58
2022/03/23 09:53:03;;;;;;;7.75;4.32;;;18.90;54.40;;;;;;5023245;28;20025;-58
2022/03/23 09:55:29;;;;;;;7.78;3.85;;;18.90;54.30;;;;;;5018642;28;20034;-58
2022/03/23 09:57:56;;;;;;;7.97;4.45;;;19.00;54.30;;;;;;5016054;28;20492;-58
2022/03/23 10:00:22;;;;;;;6.72;3.90;;;19.00;54.20;;;;;;5022897;28;20434;-58
2022/03/23 10:02:56;;;;;;;6.43;3.78;;;19.00;54.20;;;;;;5024543;28;20478;-58
2022/03/23 10:05:25;;;;;;;;;;;19.00;54.20;;;;;;5018958;28;20030;-58
2022/03/23 10:08:12;;;;;;;7.55;3.80;;;19.00;54.00;;;;;;5018422;28;19917;-58
2022/03/23 10:11:15;;;;;;;7.25;4.20;;;19.00;54.00;;;;;;5015502;28;20017;-58
2022/03/23 10:14:18;;;;;;;7.53;4.15;;;19.10;54.00;;;;;;5015863;28;20095;-58
2022/03/23 10:17:04;;;;;;;7.38;3.75;;;19.10;53.90;;;;;;5013491;28;20034;-58
2022/03/23 10:19:30;;;;;;;7.10;3.88;;;19.10;54.00;;;;;;5015217;28;20030;-58
2022/03/23 10:22:06;;;;;;;6.63;3.80;;;19.10;53.90;;;;;;5023088;28;20037;-58
2022/03/23 10:24:33;;;;;;;6.57;3.88;;;19.10;53.90;;;;;;5019342;28;20355;-58
2022/03/23 10:27:03;;;;;;;7.22;4.05;;;19.20;53.90;;;;;;5018770;28;20029;-58
2022/03/23 10:29:31;;;;;;;7.85;3.72;;;19.20;53.90;;;;;;5027704;28;20147;-58
2022/03/23 10:32:01;;;;;;;7.00;3.92;;;19.20;53.70;;;;;;5019352;28;20044;-58
2022/03/23 10:34:40;;;;;;;9.02;4.15;;;19.20;53.70;;;;;;5023036;28;20779;-58
2022/03/23 10:37:05;;;;;;;6.85;3.80;;;19.20;53.60;;;;;;5023983;28;20509;-58
2022/03/23 10:39:31;;;;;;;7.57;4.10;;;19.20;53.60;;;;;;5017920;28;20033;-58
2022/03/23 10:42:17;;;;;;;6.40;3.97;;;19.30;53.40;;;;;;5024211;28;20139;-58
2022/03/23 10:44:44;;;;;;;6.72;3.80;;;19.30;53.50;;;;;;5018136;28;20165;-58
2022/03/23 10:47:32;;;;;;;6.68;3.72;;;19.30;53.40;;;;;;5015880;28;20076;-58
2022/03/23 10:50:24;;;;;;;6.65;4.03;;;19.30;53.40;;;;;;5016158;28;20401;-57
2022/03/23 10:52:57;;;;;;;6.45;3.72;;;19.40;53.30;;;;;;5016562;28;20477;-58
2022/03/23 10:55:30;;;;;;;6.60;3.85;;;19.40;53.20;;;;;;5019294;28;20410;-58
2022/03/23 10:57:59;;;;;;;6.57;3.65;;;19.40;53.20;;;;;;5023470;28;20541;-58
2022/03/23 11:00:32;;;;;;;6.43;3.70;;;19.40;53.30;;;;;;5017421;28;20067;-58
2022/03/23 11:02:58;;;;;;;6.53;3.67;;;19.40;53.30;;;;;;5021176;28;20033;-58
2022/03/23 11:05:31;;;;;;;6.03;3.63;;;19.50;53.30;;;;;;5020977;28;20079;-58
2022/03/23 11:08:12;;;;;;;7.32;4.10;;;19.50;53.20;;;;;;5023614;28;20521;-58
2022/03/23 11:16:29;;;;;;;6.05;3.60;;;19.50;53.20;;;;;;5013982;28;20090;-58
2022/03/23 11:19:08;;;;;;;5.85;3.60;;;19.60;53.20;;;;;;5024184;28;20072;-58
2022/03/23 11:21:36;;;;;;;6.30;3.50;;;19.60;53.20;;;;;;5017114;28;20108;-58
2022/03/23 11:24:02;;;;;;;6.70;3.70;;;19.60;54.20;;;;;;5019606;28;20038;-58
2022/03/23 11:26:28;;;;;;;6.25;3.50;;;19.60;53.00;;;;;;5016846;28;20033;-58
2022/03/23 11:28:54;;;;;;;6.72;3.78;;;19.70;53.10;;;;;;5015702;28;20034;-58
2022/03/23 11:31:19;;;;;;;6.47;3.63;;;19.70;53.10;;;;;;5039272;28;20429;-58
2022/03/23 11:33:50;;;;;;;6.68;3.70;;;19.70;53.00;;;;;;4997976;28;20557;-58
2022/03/23 11:36:17;;;;;;;6.47;3.47;;;19.80;52.90;;;;;;5023286;28;20044;-58
2022/03/23 11:38:42;;;;;;;6.55;3.60;;;19.80;52.90;;;;;;5025594;28;20371;-58
2022/03/23 11:41:09;;;;;;;6.53;3.40;;;19.80;52.90;;;;;;5026123;28;20051;-58
2022/03/23 11:43:37;;;;;;;7.15;3.88;;;19.90;53.00;;;;;;5045153;28;20053;-58
2022/03/23 11:46:04;;;;;;;5.82;3.60;;;19.90;52.90;;;;;;5015770;28;20037;-58
2022/03/23 11:48:31;;;;;;;6.38;3.47;;;19.90;52.80;;;;;;5017852;28;20108;-58
2022/03/23 11:51:33;;;;;;;6.32;3.72;;;19.90;52.80;;;;;;5025836;28;20104;-58
2022/03/23 11:54:01;;;;;;;7.47;3.50;;;19.90;52.70;;;;;;5018351;28;20120;-58
2022/03/23 11:56:40;;;;;;;6.28;3.38;;;20.00;52.70;;;;;;5048110;28;20497;-58
2022/03/23 11:59:20;;;;;;;5.82;3.33;;;20.10;52.70;;;;;;5026173;28;20394;-58
2022/03/23 12:01:46;;;;;;;6.25;3.50;;;20.10;52.70;;;;;;5046363;28;20025;-58
2022/03/23 12:04:22;;;;;;;6.43;3.50;;;20.10;52.60;;;;;;5015593;28;20084;-58
2022/03/23 12:07:04;;;;;;;6.07;3.50;;;20.10;52.50;;;;;;5016638;28;20030;-58
2022/03/23 12:09:44;;;;;;;6.78;3.47;;;20.20;52.40;;;;;;5019290;28;20475;-58
2022/03/23 12:12:10;;;;;;;6.20;3.60;;;20.20;52.50;;;;;;5020379;28;20034;-58
2022/03/23 12:14:40;;;;;;;7.32;3.50;;;20.30;52.30;;;;;;5014090;28;20029;-58
2022/03/23 12:17:16;;;;;;;6.30;3.22;;;20.30;52.30;;;;;;5014806;28;20045;-58
2022/03/23 12:20:03;;;;;;;6.05;3.50;;;20.30;52.20;;;;;;5013530;28;20098;-58
2022/03/23 12:22:35;;;;;;;5.53;3.55;;;20.40;52.30;;;;;;5019937;28;20068;-58
2022/03/23 12:25:06;;;;;;;5.38;3.50;;;20.40;52.10;;;;;;5021850;28;20033;-58
2022/03/23 12:27:45;;;;;;;6.60;3.38;;;20.50;52.10;;;;;;5013424;28;20037;-58
2022/03/23 12:30:22;;;;;;;5.70;3.10;;;20.50;52.10;;;;;;5018007;28;20723;-58
2022/03/23 12:32:48;;;;;;;6.63;3.15;;;20.50;52.00;;;;;;5015895;28;20025;-58
2022/03/23 12:35:13;;;;;;;6.35;3.25;;;20.60;52.00;;;;;;5022170;28;20026;-58
2022/03/23 12:37:42;;;;;;;6.45;3.38;;;20.60;52.00;;;;;;5015613;28;20457;-58
2022/03/23 12:40:09;;;;;;;5.93;3.50;;;20.60;51.90;;;;;;5020550;28;20499;-58
2022/03/23 12:42:43;;;;;;;5.57;3.33;;;20.70;51.90;;;;;;5021746;28;20119;-58
2022/03/23 12:45:13;;;;;;;5.82;3.25;;;20.70;51.80;;;;;;5025578;28;20044;-58
2022/03/23 12:47:57;;;;;;;6.47;3.50;;;20.70;51.70;;;;;;5020898;28;20080;-58
2022/03/23 12:58:46;;;;;;;5.47;3.33;;;20.90;51.40;;;;;;5048868;28;20095;-58
2022/03/23 13:01:13;;;;;;;5.05;2.92;;;21.00;51.40;;;;;;5020510;28;20490;-58
2022/03/23 13:03:38;;;;;;;5.03;3.15;;;21.00;51.30;;;;;;5020397;28;20064;-58
2022/03/23 13:06:07;;;;;;;5.05;3.08;;;21.00;51.40;;;;;;5022550;28;20466;-58
2022/03/23 13:08:33;;;;;;;5.55;3.20;;;21.10;51.30;;;;;;5023634;28;20029;-58
2022/03/23 13:11:03;;;;;;;6.78;3.53;;;21.10;51.20;;;;;;5020575;28;20079;-58
2022/03/23 13:13:32;;;;;;;5.03;3.10;;;21.20;51.10;;;;;;5021426;28;20112;-58